Time;durP1;ratioP1;P1;durP2;ratioP2;P2;SDS_P1;SDS_P2;PMS_P1;PMS_P2;Temp;Humidity;BMP_temperature;BMP_pressure;BME280_temperature;BME280_humidity;BME280_pressure;Samples;Min_cycle;Max_cycle;Signal;HPM_P1;HPM_P2
2022/01/12 00:05:56;;;;;;;36;42.3;;;;;;;-3.2;75.3;100580;;;;
2022/01/12 00:16:59;;;;;;;33.2;47;;;;;;;-3.3;75.8;100570;;;;
2022/01/12 00:37:56;;;;;;;33.2;47;;;;;;;-3.3;76.2;100590;;;;
2022/01/12 00:47:56;;;;;;;30.9;39.1;;;;;;;-3.2;76.1;100580;;;;
2022/01/12 00:57:58;;;;;;;30.9;39.1;;;;;;;-3.3;75.9;100570;;;;
2022/01/12 01:08:56;;;;;;;30.9;39.1;;;;;;;-2.9;75;100580;;;;
2022/01/12 01:29:56;;;;;;;28.7;33.4;;;;;;;-3;74.2;100580;;;;
2022/01/12 01:40:56;;;;;;;28.7;33.4;;;;;;;-2.9;73.9;100590;;;;
2022/01/12 02:01:56;;;;;;;26.9;33.8;;;;;;;-2.9;73.2;100580;;;;
2022/01/12 02:11:56;;;;;;;24.7;29.2;;;;;;;-2.9;73.3;100590;;;;
2022/01/12 02:43:06;;;;;;;23.2;28.9;;;;;;;-2.8;73.5;100570;;;;
2022/01/12 02:54:00;;;;;;;23.2;28.9;;;;;;;-2.8;73.4;100590;;;;
2022/01/12 03:03:57;;;;;;;23.2;28.9;;;;;;;-2.7;73.6;100580;;;;
2022/01/12 03:13:56;;;;;;;24.1;30.2;;;;;;;-2.7;73.3;100580;;;;
2022/01/12 03:23:56;;;;;;;24.1;30.2;;;;;;;-2.6;73.1;100580;;;;
2022/01/12 04:16:56;;;;;;;27.9;33.1;;;;;;;-2.6;72.3;100570;;;;
2022/01/12 04:26:56;;;;;;;27.9;33.1;;;;;;;-2.6;69.7;100570;;;;
2022/01/12 04:36:56;;;;;;;27.9;33.1;;;;;;;-2.6;69.8;100570;;;;
2022/01/12 04:47:05;;;;;;;28.8;36.5;;;;;;;-2.6;69.6;100590;;;;
2022/01/12 04:57:56;;;;;;;28.8;36.5;;;;;;;-2.7;70.5;100580;;;;
2022/01/12 05:09:08;;;;;;;28.8;36.5;;;;;;;-2.8;70.3;100590;;;;
2022/01/12 05:18:56;;;;;;;23;29.2;;;;;;;-2.9;70.2;100600;;;;
2022/01/12 05:29:56;;;;;;;23;29.2;;;;;;;-2.9;70;100610;;;;
2022/01/12 05:39:56;;;;;;;23;29.2;;;;;;;-2.9;69.8;100610;;;;
2022/01/12 05:49:56;;;;;;;15.7;19;;;;;;;-3;69.6;100610;;;;
2022/01/12 06:00:56;;;;;;;15.7;19;;;;;;;-3.1;69.7;100620;;;;
2022/01/12 06:11:56;;;;;;;14.4;18.7;;;;;;;-3.3;69.7;100630;;;;
2022/01/12 06:21:56;;;;;;;14.4;18.7;;;;;;;-3.4;69.3;100650;;;;
2022/01/12 06:32:56;;;;;;;14.4;18.7;;;;;;;-3.3;69;100640;;;;
2022/01/12 06:43:56;;;;;;;14.4;17.3;;;;;;;-3.2;68.5;100650;;;;
2022/01/12 06:53:56;;;;;;;14.4;17.3;;;;;;;-3.2;68.1;100670;;;;
2022/01/12 07:04:56;;;;;;;14.4;17.3;;;;;;;-3.1;67.7;100680;;;;
2022/01/12 07:15:56;;;;;;;14.2;19.6;;;;;;;-3.1;67.2;100680;;;;
2022/01/12 07:25:56;;;;;;;14.2;19.6;;;;;;;-3.2;67.2;100700;;;;
2022/01/12 07:35:56;;;;;;;14.2;19.6;;;;;;;-3.2;67.5;100700;;;;
2022/01/12 07:45:56;;;;;;;15.4;20.6;;;;;;;-3.2;67.6;100700;;;;
2022/01/12 07:56:56;;;;;;;15.4;20.6;;;;;;;-3.3;67.3;100710;;;;
2022/01/12 08:06:56;;;;;;;15.4;20.6;;;;;;;-3.2;67.5;100710;;;;
2022/01/12 08:16:56;;;;;;;16.5;21.3;;;;;;;-3.2;67.1;100720;;;;
2022/01/12 08:27:56;;;;;;;16.5;21.3;;;;;;;-3.1;66.8;100720;;;;
2022/01/12 08:37:57;;;;;;;16.5;21.3;;;;;;;-3;66.8;100720;;;;
2022/01/12 08:48:56;;;;;;;16.7;20.7;;;;;;;-3;66.7;100740;;;;
2022/01/12 08:58:56;;;;;;;16.7;20.7;;;;;;;-3.1;66;100740;;;;
2022/01/12 09:09:56;;;;;;;18.9;25.5;;;;;;;-3.2;66.8;100750;;;;
2022/01/12 09:20:57;;;;;;;18.9;25.5;;;;;;;-3;67.3;100730;;;;
2022/01/12 09:31:56;;;;;;;18.9;25.5;;;;;;;-2.9;67.1;100730;;;;
2022/01/12 09:42:57;;;;;;;25.7;34.8;;;;;;;-2.8;66.6;100720;;;;
2022/01/12 09:53:56;;;;;;;25.7;34.8;;;;;;;-3.1;67.1;100720;;;;
2022/01/12 10:03:56;;;;;;;25.7;34.8;;;;;;;-3.1;67.5;100680;;;;
2022/01/12 10:14:58;;;;;;;21.6;28.4;;;;;;;-2.8;66.7;100660;;;;
2022/01/12 10:24:56;;;;;;;21.6;28.4;;;;;;;-2.8;66.7;100670;;;;
2022/01/12 10:35:56;;;;;;;21.6;28.4;;;;;;;-2.6;65.6;100680;;;;
2022/01/12 10:45:57;;;;;;;23.6;34.7;;;;;;;-2.8;65.9;100690;;;;
2022/01/12 10:56:56;;;;;;;23.6;34.7;;;;;;;-2.8;66.1;100660;;;;
2022/01/12 11:06:56;;;;;;;23.6;34.7;;;;;;;-2.8;65.4;100670;;;;
2022/01/12 11:17:56;;;;;;;29.9;40.8;;;;;;;-2.8;64.5;100660;;;;
2022/01/12 11:27:56;;;;;;;29.9;40.8;;;;;;;-2.7;64.7;100660;;;;
2022/01/12 11:37:59;;;;;;;29.9;40.8;;;;;;;-2.8;64.2;100650;;;;
2022/01/12 11:48:56;;;;;;;21.3;27;;;;;;;-2.9;65.3;100640;;;;
2022/01/12 11:58:56;;;;;;;21.3;27;;;;;;;-2.8;65.4;100640;;;;
2022/01/12 12:09:57;;;;;;;23.5;29.4;;;;;;;-2.9;65.2;100630;;;;
2022/01/12 12:20:56;;;;;;;23.5;29.4;;;;;;;-3;65.3;100640;;;;
2022/01/12 12:30:56;;;;;;;23.5;29.4;;;;;;;-3.2;65.3;100660;;;;
2022/01/12 12:41:56;;;;;;;22.5;28.1;;;;;;;-3.1;65.5;100650;;;;
2022/01/12 12:51:56;;;;;;;22.5;28.1;;;;;;;-3.2;65.6;100660;;;;
2022/01/12 13:01:56;;;;;;;22.5;28.1;;;;;;;-3.1;65.5;100650;;;;
2022/01/12 13:12:56;;;;;;;24.4;32.3;;;;;;;-3;65;100640;;;;
2022/01/12 13:23:56;;;;;;;24.4;32.3;;;;;;;-2.7;64.9;100630;;;;
2022/01/12 13:33:56;;;;;;;24.4;32.3;;;;;;;-3;64.8;100610;;;;
2022/01/12 13:43:58;;;;;;;24.6;32.4;;;;;;;-3;65.7;100620;;;;
2022/01/12 13:54:57;;;;;;;24.6;32.4;;;;;;;-3.1;66.3;100620;;;;
2022/01/12 14:06:00;;;;;;;24.6;32.4;;;;;;;-3.2;66.5;100620;;;;
2022/01/12 14:15:56;;;;;;;24.1;30.8;;;;;;;-3.2;66.3;100620;;;;
2022/01/12 14:25:56;;;;;;;24.1;30.8;;;;;;;-3.3;66.4;100630;;;;
2022/01/12 14:36:56;;;;;;;24.1;30.8;;;;;;;-3.4;66.4;100630;;;;
2022/01/12 14:47:56;;;;;;;28.2;35.7;;;;;;;-3.3;66.8;100630;;;;
2022/01/12 14:58:57;;;;;;;28.2;35.7;;;;;;;-3.4;66.9;100630;;;;
2022/01/12 15:08:56;;;;;;;37.7;45.7;;;;;;;-3.5;66.9;100620;;;;
2022/01/12 15:19:56;;;;;;;37.7;45.7;;;;;;;-3.6;67.4;100620;;;;
2022/01/12 15:30:56;;;;;;;37.7;45.7;;;;;;;-3.6;67.3;100610;;;;
2022/01/12 15:40:56;;;;;;;42.3;51.2;;;;;;;-3.6;67.6;100630;;;;
2022/01/12 15:50:56;;;;;;;42.3;51.2;;;;;;;-3.6;67.8;100640;;;;
2022/01/12 16:00:56;;;;;;;42.3;51.2;;;;;;;-3.6;68;100650;;;;
2022/01/12 16:11:57;;;;;;;46.7;60.4;;;;;;;-3.6;67.9;100650;;;;
2022/01/12 16:21:56;;;;;;;46.7;60.4;;;;;;;-3.6;67.7;100650;;;;
2022/01/12 16:32:56;;;;;;;46.7;60.4;;;;;;;-3.9;68.3;100650;;;;
2022/01/12 16:43:56;;;;;;;49;61;;;;;;;-4.2;68.9;100630;;;;
2022/01/12 16:53:56;;;;;;;49;61;;;;;;;-4.5;69.4;100630;;;;
2022/01/12 17:03:56;;;;;;;49;61;;;;;;;-4.8;70.3;100630;;;;
2022/01/12 17:14:56;;;;;;;46.1;56.3;;;;;;;-5;70.8;100620;;;;
2022/01/12 17:25:56;;;;;;;46.1;56.3;;;;;;;-5.1;71.4;100620;;;;
2022/01/12 17:36:56;;;;;;;46.1;56.3;;;;;;;-5.1;71.7;100610;;;;
2022/01/12 17:47:59;;;;;;;50.4;62.6;;;;;;;-5;71.4;100620;;;;
2022/01/12 17:58:56;;;;;;;50.4;62.6;;;;;;;-5.1;71.7;100620;;;;
2022/01/12 18:09:56;;;;;;;48.3;56.5;;;;;;;-4.9;71.5;100620;;;;
2022/01/12 18:20:56;;;;;;;48.3;56.5;;;;;;;-4.9;71.5;100610;;;;
2022/01/12 18:30:56;;;;;;;48.3;56.5;;;;;;;-4.9;71.3;100620;;;;
2022/01/12 18:41:56;;;;;;;53.6;65.8;;;;;;;-4.9;71.4;100620;;;;
2022/01/12 18:52:57;;;;;;;53.6;65.8;;;;;;;-4.7;71.6;100620;;;;
2022/01/12 19:02:56;;;;;;;53.6;65.8;;;;;;;-4.5;71.4;100610;;;;
2022/01/12 19:14:02;;;;;;;48.8;60.4;;;;;;;-4.2;70.9;100620;;;;
2022/01/12 19:23:57;;;;;;;48.8;60.4;;;;;;;-4;70.5;100610;;;;
2022/01/12 19:33:56;;;;;;;48.8;60.4;;;;;;;-3.8;70.2;100620;;;;
2022/01/12 19:43:56;;;;;;;43.3;51.7;;;;;;;-3.6;69.6;100620;;;;
2022/01/12 19:53:57;;;;;;;43.3;51.7;;;;;;;-3.5;69.3;100630;;;;
2022/01/12 20:04:56;;;;;;;43.3;51.7;;;;;;;-3.3;69.2;100620;;;;
2022/01/12 20:14:56;;;;;;;51.3;64;;;;;;;-3.6;69.3;100600;;;;
2022/01/12 20:24:56;;;;;;;51.3;64;;;;;;;-3.5;68.9;100610;;;;
2022/01/12 20:34:56;;;;;;;51.3;64;;;;;;;-3.3;68.5;100610;;;;
2022/01/12 20:45:56;;;;;;;48.8;63.4;;;;;;;-3.2;68.3;100620;;;;
2022/01/12 20:55:56;;;;;;;48.8;63.4;;;;;;;-3.2;68.5;100620;;;;
2022/01/12 21:06:56;;;;;;;48.8;57.5;;;;;;;-3.1;68.1;100630;;;;
2022/01/12 21:16:56;;;;;;;48.8;57.5;;;;;;;-3;68.3;100600;;;;
2022/01/12 21:27:56;;;;;;;48.8;57.5;;;;;;;-3.1;67.9;100590;;;;
2022/01/12 21:38:03;;;;;;;50.1;60.6;;;;;;;-3;67.6;100580;;;;
2022/01/12 21:47:56;;;;;;;50.1;60.6;;;;;;;-2.9;67.2;100590;;;;
2022/01/12 21:57:56;;;;;;;50.1;60.6;;;;;;;-2.9;67.1;100590;;;;
2022/01/12 22:08:56;;;;;;;45.1;58;;;;;;;-2.8;67.3;100580;;;;
2022/01/12 22:18:56;;;;;;;45.1;58;;;;;;;-2.8;67.2;100580;;;;
2022/01/12 22:28:56;;;;;;;45.1;58;;;;;;;-2.6;67.1;100570;;;;
2022/01/12 22:39:56;;;;;;;51.7;66;;;;;;;-2.6;67.1;100560;;;;
2022/01/12 22:49:56;;;;;;;51.7;66;;;;;;;-2.5;67;100540;;;;
2022/01/12 22:59:56;;;;;;;51.7;66;;;;;;;-2.4;67.4;100540;;;;
2022/01/12 23:09:56;;;;;;;65.9;82.5;;;;;;;-2.3;67.8;100530;;;;
2022/01/12 23:20:56;;;;;;;65.9;82.5;;;;;;;-2.2;68.5;100520;;;;
2022/01/12 23:31:57;;;;;;;65.9;82.5;;;;;;;-2.3;68.9;100520;;;;
2022/01/12 23:43:16;;;;;;;59.7;72;;;;;;;-2.3;69.2;100500;;;;
2022/01/12 23:55:07;;;;;;;59.7;72;;;;;;;-2.3;69.3;100510;;;;
